Howard City, MI (49329)

8:09 AM EST on February 11, 2016 (GMT -0500)
Ensley Center - Snow Farm | | Change Station
CLOSE
Current Station
Personal Weather Station
Location: Howard City, MI
Elevation: 982 ft
Nearby Weather Stations

Elev 982 ft 43.36 °N, 85.62 °W | Updated 23 minutes ago

Overcast
Overcast
10.8 °F
Feels Like 5 °F
N
3.2
Wind Variable Wind from SW

Today
High -- | Low -- °F
--% Chance of Precip.
Yesterday
High -- | Low -- °F
Precip. -- in
Pressure 30.12 in
Visibility 4.0 miles
Clouds Overcast 5000 ft
Windchill 5 °F
Dew Point 8 °F
Humidity 89%
Rainfall 0.00 in
Snow Depth Not available.
7:46 AM 6:06 PM
Waxing Crescent, 12% visible
METAR KRQB 111255Z AUTO 29005KT 4SM -SN OVC050 M11/M13 A3012 RMK AO2 T11101126
Pressure 30.12 in
Visibility 4.0 miles
Clouds Overcast 5000 ft
Windchill 5 °F
Dew Point 8 °F
Humidity 89%
Rainfall 0.00 in
Snow Depth Not available.
7:46 AM 6:06 PM
Waxing Crescent, 12% visible
METAR KRQB 111255Z AUTO 29005KT 4SM -SN OVC050 M11/M13 A3012 RMK AO2 T11101126

10-Day Weather Forecast

Almanac

Astronomy

Feb. 11, 2016 Rise Set
Actual Time
Civil Twilight
Nautical Twilight
Astronomical Twilight
Moon
Length of Visible Light
Length of Day
Tomorrow will be .
, % of the Moon is Illuminated

Today's Extremes

State Highs State Lows

Community

WunderPhotos

Upload Photos

1,892,038 photos uploaded!

WunderBlog® & News

Nearby

Air Quality

  Air Quality AQ Index Pollutant
Not available.

Snow Depth

Station Depth Elevation

Earthquake Activity

City Distance Mag. Time & Date
Minimum magnitude displayed is 2.5.

Coastal Water Temperatures

Place Temperature

Stations

Nearby Weather Stations

Station Location Temp. Windchill Dew Point Humidity Wind Precip. Elev Updated Type
                   

Watches & Warnings

There are currently no watches in effect.